Khasavyurt, Russia
Current Conditions -  °F | °C
As of 8:00 PM on Saturday 20 Dec 2014 (Local Time) from URML Reporting Station
Haze Haze  
Wind Chill: 40°   Ceiling: 800
Heat Index: 45°   Visibility: 2mi
Dew Point: 41°   Wind: 9mph
Humidity: 87%   Direction: 150°SSE
Pressure: 30.12"   Gusts: NA
Location:  43.24°N, 46.58°E
Report Text: URML 201700Z 15004MPS 3200 BR BKN008 07/05 Q1020 TEMPO 1000 BRBKN003 RMK MT OBSC QFE765/1020 SC070
Loading
Personal Weather Stations






























Interactive Weather Map New forecast layout! Learn more

10-Day Weather Forecast

Advertisements
Track Severe Weather on mobile